• Join FlightAware (Why Join?)
  • Login
  • US Flag 
01:16PM EDT


 

Airport Tracker/Info


-or-


 

Live Flight TrackerFlight Track Log ✈ N81ER ✈ 28-Jun-2013 ✈ KSNA - KMKE

Flight Track Log - Related Links

Times and Time Zones

All times are in EDT time to prevent confusion due to time zone crossing. See the N81ER flight status page for this flight to view local times or setup timezone preferences in your user account.

Time Position Orientation Groundspeed Altitude Reporting Facility
EDT Latitude Longitude Course Direction KTS MPH feet Rate Location/Type
12:24PM 33.5510 -117.8770 122° Southeast 261 300 5,000  Level FlightAware
12:25PM 33.5570 -117.8210 83° East 245 282 7,100 2,820 Climbing FlightAware
12:25PM 33.5660 -117.7690 78° East 256 295 8,400 2,400 Climbing FlightAware
12:26PM 33.5670 -117.7300 88° East 254 292 9,600 2,520 Climbing FlightAware
12:27PM 33.5710 -117.6620 86° East 258 297 11,500 2,460 Climbing FlightAware
12:27PM 33.5750 -117.6000 86° East 261 300 13,100 2,280 Climbing FlightAware
12:28PM 33.5790 -117.5410 85° East 260 299 14,700 2,280 Climbing FlightAware
12:29PM 33.5830 -117.4840 85° East 261 300 16,200 2,160 Climbing FlightAware
12:29PM 33.5860 -117.4170 87° East 267 307 17,800 1,020 Climbing FlightAware
12:31PM 33.5930 -117.2160 88° East 355 409 19,100 1,200 Climbing FlightAware
12:33PM 33.6010 -117.0000 87° East 310 357 22,800 1,440 Climbing FlightAware
12:34PM 33.6040 -116.9260 87° East 342 394 23,000 120 Climbing FlightAware
12:35PM 33.6060 -116.8580 88° East 362 417 23,000  Level FlightAware
12:35PM 33.6080 -116.8050 87° East 370 426 23,000 60 Level FlightAware
12:36PM 33.6120 -116.6750 88° East 372 428 23,100 1,080 Climbing FlightAware
12:37PM 33.6160 -116.5480 88° East 331 381 25,300 1,920 Climbing FlightAware
12:38PM 33.6190 -116.4590 88° East 317 365 26,900 1,920 Climbing FlightAware
12:38PM 33.6220 -116.4100 86° East 313 360 27,800 1,620 Climbing FlightAware
12:39PM 33.6250 -116.3440 87° East 317 365 28,700 1,140 Climbing FlightAware
12:40PM 33.6270 -116.2350 89° East 330 380 29,800 1,020 Climbing FlightAware
12:41PM 33.6270 -116.1390 90° East 335 386 30,700 1,020 Climbing FlightAware
12:42PM 33.6260 -116.0810 91° East 338 389 31,300 1,080 Climbing FlightAware
12:42PM 33.6370 -115.9920 82° East 342 394 32,200 1,200 Climbing FlightAware
12:43PM 33.6740 -115.9120 61° Northeast 344 396 33,100 1,080 Climbing FlightAware
12:44PM 33.7080 -115.8450 59° Northeast 345 397 33,800 660 Climbing FlightAware
12:50PM 33.9910 -115.2690 59° Northeast 362 417 37,900 660 Climbing FlightAware
12:51PM 34.0230 -115.1830 66° East 361 415 38,500 720 Climbing FlightAware
12:51PM 34.0560 -115.0940 66° East 364 419 38,900 480 Climbing FlightAware
12:52PM 34.1060 -114.9630 65° Northeast 367 422 39,400 240 Climbing FlightAware
12:53PM 34.1280 -114.9050 65° Northeast 367 422 39,400 720 Level FlightAware
12:54PM 34.1780 -114.8060 59° Northeast 370 426 40,400 960 Climbing FlightAware
12:54PM 34.2130 -114.7340 60° Northeast 371 427 40,800 420 Climbing FlightAware
12:55PM 34.2460 -114.6650 60° Northeast 375 432 41,000 120 Climbing FlightAware
12:56PM 34.2810 -114.5930 60° Northeast 383 441 41,000  Level FlightAware
12:57PM 34.3620 -114.4240 60° Northeast 393 452 41,000  Level FlightAware
12:58PM 34.4020 -114.3410 60° Northeast 396 456 41,000  Level FlightAware
12:58PM 34.4350 -114.2710 60° Northeast 397 457 41,000  Level FlightAware
12:59PM 34.4780 -114.1800 60° Northeast 396 456 41,000  Level FlightAware
01:01PM 34.5920 -113.9390 60° Northeast 393 452 41,000  Level FlightAware
01:02PM 34.6410 -113.8370 60° Northeast 392 451 41,000  Level FlightAware
01:03PM 34.6770 -113.7600 60° Northeast 391 450 41,000  Level FlightAware
01:04PM 34.7150 -113.6780 61° Northeast 390 449 41,000  Level FlightAware
01:04PM 34.7490 -113.6050 60° Northeast 390 449 41,000  Level FlightAware
01:05PM 34.8000 -113.4970 60° Northeast 391 450 41,000  Level FlightAware
01:08PM 34.9380 -113.1990 60° Northeast 395 455 41,000  Level FlightAware
01:08PM 34.9750 -113.1190 61° Northeast 396 456 41,000  Level FlightAware
01:09PM 35.0130 -113.0350 61° Northeast 398 458 41,000 120 Level FlightAware
01:10PM 35.0460 -112.9630 61° Northeast 395 455 41,200 360 Climbing FlightAware
01:12PM 35.1390 -112.7630 60° Northeast 382 440 41,900 600 Climbing FlightAware
01:12PM 35.1670 -112.7000 61° Northeast 374 430 42,800 900 Climbing FlightAware
01:13PM 35.2150 -112.5930 61° Northeast 372 428 43,200 420 Climbing FlightAware
01:14PM 35.2490 -112.5180 61° Northeast 370 426 43,500 420 Climbing FlightAware
01:14PM 35.2780 -112.4540 61° Northeast 368 423 43,800 420 Climbing FlightAware
01:15PM 35.3181 -112.3625 61° Northeast 369 425 44,200 420 Climbing Albuquerque Center
01:16PM 35.3656 -112.2561 61° Northeast 364 419 44,700 480 Climbing Albuquerque Center
01:17PM 35.3944 -112.1919 61° Northeast 360 414 45,000 180 Climbing Los Angeles Center
01:18PM 35.4422 -112.0833 62° Northeast 364 419 45,000  Level Los Angeles Center
01:23PM 35.7020 -111.5030 62° Northeast 386 444 45,000  Level FlightAware
01:24PM 35.7390 -111.4170 62° Northeast 386 444 45,000  Level FlightAware
01:25PM 35.7930 -111.2940 62° Northeast 387 445 45,000  Level FlightAware
01:25PM 35.8340 -111.2010 61° Northeast 388 447 45,000  Level FlightAware
01:26PM 35.8750 -111.1050 62° Northeast 388 447 45,000  Level FlightAware
01:27PM 35.9350 -110.9680 62° Northeast 388 447 45,000  Level FlightAware
01:28PM 35.9840 -110.8540 62° Northeast 388 447 45,000  Level FlightAware
01:29PM 36.0310 -110.7440 62° Northeast 388 447 45,000  Level FlightAware
01:33PM 36.2010 -110.3470 62° Northeast 389 448 45,000  Level FlightAware
01:33PM 36.2360 -110.2630 63° Northeast 390 449 45,000  Level FlightAware
01:34PM 36.2710 -110.1800 62° Northeast 390 449 45,000  Level FlightAware
01:37PM 36.4010 -109.8710 62° Northeast 389 448 45,000  Level FlightAware
01:37PM 36.4340 -109.7930 62° Northeast 389 448 45,000  Level FlightAware
01:38PM 36.4790 -109.6840 63° Northeast 389 448 45,000  Level FlightAware
01:39PM 36.5050 -109.6240 62° Northeast 389 448 45,000  Level FlightAware
01:40PM 36.5570 -109.5030 62° Northeast 389 448 45,000  Level FlightAware
01:43PM 36.6700 -109.2390 62° Northeast 389 448 45,000  Level FlightAware
01:43PM 36.6960 -109.1780 62° Northeast 389 448 45,000  Level FlightAware
01:44PM 36.7290 -109.0990 62° Northeast 389 448 45,000  Level FlightAware
01:45PM 36.7550 -109.0380 62° Northeast 389 448 45,000  Level FlightAware
01:46PM 36.8490 -108.7810 65° Northeast 45,000  Level FlightAware
01:47PM 36.8880 -108.6860 63° Northeast 385 443 45,000  Level FlightAware
01:47PM 36.9210 -108.6040 63° Northeast 386 444 45,000  Level FlightAware
01:48PM 36.9530 -108.5230 64° Northeast 386 444 45,000  Level FlightAware
01:49PM 36.9880 -108.4370 63° Northeast 388 447 45,000  Level FlightAware
01:50PM 37.0330 -108.3230 64° Northeast 389 448 45,000  Level FlightAware
01:51PM 37.0850 -108.1930 63° Northeast 390 449 45,000  Level FlightAware
01:52PM 37.1260 -108.0900 63° Northeast 392 451 45,000  Level FlightAware
01:52PM 37.1560 -108.0130 64° Northeast 393 452 45,000  Level FlightAware
01:53PM 37.1850 -107.9400 63° Northeast 393 452 45,000  Level FlightAware
01:54PM 37.2210 -107.8480 64° Northeast 393 452 45,000  Level FlightAware
01:54PM 37.2560 -107.7580 64° Northeast 392 451 45,000  Level FlightAware
01:55PM 37.2910 -107.6690 64° Northeast 391 450 45,000  Level FlightAware
01:56PM 37.3180 -107.5990 64° Northeast 392 451 45,000  Level FlightAware
01:57PM 37.3560 -107.5010 64° Northeast 392 451 45,000  Level FlightAware
01:57PM 37.3780 -107.4450 64° Northeast 391 450 45,000  Level FlightAware
01:58PM 37.4240 -107.3270 64° Northeast 391 450 45,000  Level FlightAware
01:59PM 37.4690 -107.2100 64° Northeast 390 449 45,000  Level FlightAware
02:00PM 37.5010 -107.1260 64° Northeast 391 450 45,000  Level FlightAware
02:00PM 37.5270 -107.0580 64° Northeast 392 451 45,000  Level FlightAware ADS-B
02:01PM 37.5545 -106.9860 64° Northeast 393 452 45,000  Level FlightAware ADS-B
02:01PM 37.5784 -106.9240 64° Northeast 393 452 45,000  Level FlightAware ADS-B
02:02PM 37.6020 -106.8620 64° Northeast 393 452 45,000  Level FlightAware ADS-B
02:02PM 37.6285 -106.7920 64° Northeast 394 453 45,000  Level FlightAware ADS-B
02:03PM 37.6524 -106.7290 64° Northeast 395 455 45,000  Level FlightAware ADS-B
02:03PM 37.6815 -106.6520 64° Northeast 395 455 45,000  Level FlightAware ADS-B
02:04PM 37.7120 -106.5710 65° Northeast 395 455 45,000  Level FlightAware ADS-B
02:05PM 37.7477 -106.4760 65° Northeast 396 456 45,000  Level FlightAware ADS-B
02:06PM 37.7855 -106.3750 65° Northeast 397 457 45,000  Level FlightAware ADS-B
02:06PM 37.8164 -106.2920 65° Northeast 398 458 45,000  Level FlightAware ADS-B
02:07PM 37.8493 -106.2040 65° Northeast 399 459 45,000  Level FlightAware ADS-B
02:07PM 37.8755 -106.1330 65° Northeast 401 461 45,000  Level FlightAware ADS-B
02:08PM 37.9060 -106.0510 65° Northeast 402 463 45,000  Level FlightAware ADS-B
02:09PM 37.9297 -105.9870 65° Northeast 402 463 45,000  Level FlightAware ADS-B
02:09PM 37.9611 -105.9020 65° Northeast 401 461 45,000  Level FlightAware ADS-B
02:10PM 37.9851 -105.8370 65° Northeast 401 461 45,000  Level FlightAware ADS-B
02:10PM 38.0108 -105.7670 65° Northeast 401 461 45,000  Level FlightAware ADS-B
02:11PM 38.0346 -105.7020 65° Northeast 402 463 45,000  Level FlightAware ADS-B
02:11PM 38.0589 -105.6360 65° Northeast 403 464 45,000  Level FlightAware ADS-B
02:12PM 38.0823 -105.5710 65° Northeast 403 464 45,000  Level FlightAware ADS-B
02:12PM 38.1059 -105.5060 65° Northeast 403 464 45,000  Level FlightAware ADS-B
02:13PM 38.1317 -105.4360 65° Northeast 403 464 45,000  Level FlightAware ADS-B
02:13PM 38.1551 -105.3710 65° Northeast 404 465 45,000  Level FlightAware ADS-B
02:14PM 38.1786 -105.3060 65° Northeast 404 465 45,000  Level FlightAware ADS-B
02:14PM 38.2025 -105.2400 65° Northeast 405 466 45,000  Level FlightAware ADS-B
02:15PM 38.2266 -105.1730 65° Northeast 405 466 45,000  Level FlightAware ADS-B
02:15PM 38.2505 -105.1060 66° East 405 466 45,000  Level FlightAware ADS-B
02:16PM 38.2747 -105.0390 65° Northeast 406 467 45,000  Level FlightAware ADS-B
02:17PM 38.3005 -104.9670 65° Northeast 405 466 45,000  Level FlightAware ADS-B
02:17PM 38.3252 -104.8980 65° Northeast 406 467 45,000  Level FlightAware ADS-B
02:18PM 38.3517 -104.8230 66° East 405 466 45,000  Level FlightAware ADS-B
02:18PM 38.3770 -104.7520 66° East 406 467 45,000  Level FlightAware ADS-B
02:19PM 38.4070 -104.6670 66° East 405 466 45,000  Level FlightAware
02:19PM 38.4143 -104.6460 66° East 406 467 45,000  Level FlightAware ADS-B
02:20PM 38.4375 -104.5810 65° Northeast 406 467 45,000  Level FlightAware ADS-B
02:20PM 38.4609 -104.5140 66° East 406 467 45,000  Level FlightAware ADS-B
02:21PM 38.4847 -104.4460 66° East 406 467 45,000  Level FlightAware ADS-B
02:21PM 38.5077 -104.3810 66° East 406 467 45,000  Level FlightAware ADS-B
02:22PM 38.5310 -104.3140 66° East 408 470 45,000  Level FlightAware ADS-B
02:22PM 38.5542 -104.2480 66° East 409 471 45,000  Level FlightAware ADS-B
02:23PM 38.5780 -104.1790 66° East 409 471 45,000  Level FlightAware ADS-B
02:23PM 38.6013 -104.1120 66° East 410 472 45,000  Level FlightAware ADS-B
02:24PM 38.6246 -104.0450 66° East 410 472 45,000  Level FlightAware ADS-B
02:24PM 38.6481 -103.9770 66° East 411 473 45,000  Level FlightAware ADS-B
02:25PM 38.6716 -103.9090 66° East 412 474 45,000  Level FlightAware ADS-B
02:25PM 38.6952 -103.8400 66° East 412 474 45,000  Level FlightAware ADS-B
02:26PM 38.7183 -103.7730 66° East 413 475 45,000  Level FlightAware ADS-B
02:26PM 38.7414 -103.7060 66° East 414 476 45,000  Level FlightAware ADS-B
02:27PM 38.7645 -103.6380 66° East 415 478 45,000  Level FlightAware ADS-B
02:27PM 38.7874 -103.5710 66° East 414 476 45,000  Level FlightAware ADS-B
02:28PM 38.8117 -103.5000 66° East 414 476 45,000  Level FlightAware ADS-B
02:28PM 38.8343 -103.4320 67° East 409 471 45,000  Level FlightAware ADS-B
02:29PM 38.8568 -103.3660 66° East 399 459 45,000  Level FlightAware ADS-B
02:29PM 38.8789 -103.3000 67° East 391 450 45,000  Level FlightAware ADS-B
02:30PM 38.9011 -103.2360 66° East 395 455 45,000  Level FlightAware ADS-B
02:30PM 38.9228 -103.1710 67° East 399 459 45,000  Level FlightAware ADS-B
02:31PM 38.9457 -103.1020 67° East 403 464 45,000  Level FlightAware ADS-B
02:31PM 38.9679 -103.0360 67° East 404 465 45,000  Level FlightAware ADS-B
02:32PM 38.9900 -102.9700 67° East 405 466 45,000  Level FlightAware ADS-B
02:32PM 39.0123 -102.9030 67° East 405 466 45,000  Level FlightAware ADS-B
02:33PM 39.0364 -102.8300 67° East 406 467 45,000  Level FlightAware ADS-B
02:33PM 39.0587 -102.7630 67° East 406 467 45,000  Level FlightAware ADS-B
02:34PM 39.0809 -102.6960 67° East 408 470 45,000  Level FlightAware ADS-B
02:34PM 39.1032 -102.6290 67° East 410 472 45,000  Level FlightAware ADS-B
02:35PM 39.1257 -102.5600 67° East 410 472 45,000  Level FlightAware ADS-B
02:35PM 39.1504 -102.4850 67° East 412 474 45,000  Level FlightAware ADS-B
02:36PM 39.1734 -102.4140 67° East 413 475 45,000  Level FlightAware ADS-B
02:36PM 39.1959 -102.3460 67° East 412 474 45,000  Level FlightAware ADS-B
02:37PM 39.2183 -102.2770 67° East 412 474 45,000  Level FlightAware ADS-B
02:37PM 39.2407 -102.2080 67° East 413 475 45,000  Level FlightAware ADS-B
02:38PM 39.2628 -102.1400 67° East 414 476 45,000  Level FlightAware ADS-B
02:38PM 39.2852 -102.0700 68° East 412 474 45,000  Level FlightAware ADS-B
02:39PM 39.3075 -102.0010 67° East 414 476 45,000  Level FlightAware ADS-B
02:39PM 39.3298 -101.9320 67° East 413 475 45,000  Level FlightAware ADS-B
02:40PM 39.3529 -101.8600 67° East 413 475 45,000  Level FlightAware ADS-B
02:40PM 39.3750 -101.7910 67° East 414 476 45,000  Level FlightAware ADS-B
02:41PM 39.3974 -101.7210 67° East 414 476 45,000  Level FlightAware ADS-B
02:41PM 39.4202 -101.6500 67° East 415 478 45,000  Level FlightAware ADS-B
02:42PM 39.4436 -101.5760 68° East 416 479 45,000  Level FlightAware ADS-B
02:43PM 39.4656 -101.5070 68° East 416 479 45,000  Level FlightAware ADS-B
02:43PM 39.4875 -101.4370 68° East 416 479 45,000  Level FlightAware ADS-B
02:44PM 39.5093 -101.3680 68° East 417 480 45,000  Level FlightAware ADS-B
02:44PM 39.5311 -101.2990 68° East 418 481 45,000  Level FlightAware ADS-B
02:45PM 39.5538 -101.2270 68° East 416 479 45,000  Level FlightAware ADS-B
02:45PM 39.5774 -101.1510 68° East 416 479 45,000  Level FlightAware ADS-B
02:46PM 39.6004 -101.0770 68° East 417 480 45,000  Level FlightAware ADS-B
02:46PM 39.6223 -101.0070 68° East 414 476 45,000  Level FlightAware ADS-B
02:47PM 39.6436 -100.9380 68° East 409 471 45,000  Level FlightAware ADS-B
02:47PM 39.6651 -100.8690 68° East 412 474 45,000  Level FlightAware ADS-B
02:48PM 39.6876 -100.7960 68° East 412 474 45,000  Level FlightAware ADS-B
02:48PM 39.7093 -100.7260 68° East 412 474 45,000  Level FlightAware ADS-B
02:49PM 39.7304 -100.6570 68° East 412 474 45,000  Level FlightAware ADS-B
02:49PM 39.7516 -100.5880 68° East 413 475 45,000  Level FlightAware ADS-B
02:50PM 39.7728 -100.5180 68° East 414 476 45,000  Level FlightAware ADS-B
02:50PM 39.7944 -100.4480 68° East 415 478 45,000  Level FlightAware ADS-B
02:54PM 39.9421 -99.9581 68° East 414 476 45,000  Level FlightAware ADS-B
02:54PM 39.9632 -99.8869 69° East 401 461 45,000  Level FlightAware ADS-B
02:55PM 39.9844 -99.8168 68° East 401 461 45,000  Level FlightAware ADS-B
02:56PM 40.0199 -99.6971 69° East 405 466 45,000  Level FlightAware ADS-B
02:56PM 40.0400 -99.6290 69° East 400 460 45,000  Level FlightAware ADS-B
02:57PM 40.0633 -99.5499 69° East 402 463 45,000  Level FlightAware ADS-B
02:57PM 40.0851 -99.4759 69° East 408 470 45,000  Level FlightAware ADS-B
02:58PM 40.1058 -99.4053 69° East 411 473 45,000  Level FlightAware ADS-B
02:58PM 40.1322 -99.3150 69° East 414 476 45,000  Level FlightAware ADS-B
02:59PM 40.1535 -99.2421 69° East 416 479 45,000  Level FlightAware ADS-B
03:01PM 40.2296 -98.9793 69° East 422 486 45,000  Level FlightAware ADS-B
03:01PM 40.2501 -98.9081 69° East 422 486 45,000  Level FlightAware ADS-B
03:02PM 40.2706 -98.8366 69° East 422 486 45,000  Level FlightAware ADS-B
03:02PM 40.2912 -98.7648 69° East 418 481 45,000  Level FlightAware ADS-B
03:03PM 40.3112 -98.6943 70° East 409 471 45,000  Level FlightAware ADS-B
03:03PM 40.3310 -98.6248 69° East 410 472 45,000  Level FlightAware ADS-B
03:04PM 40.3511 -98.5542 69° East 413 475 45,000  Level FlightAware ADS-B
03:04PM 40.3712 -98.4831 70° East 415 478 45,000  Level FlightAware ADS-B
03:05PM 40.3919 -98.4097 70° East 417 480 45,000  Level FlightAware ADS-B
03:06PM 40.4209 -98.3066 70° East 420 483 45,000  Level FlightAware ADS-B
03:06PM 40.4412 -98.2346 70° East 419 482 45,000  Level FlightAware ADS-B
03:07PM 40.4618 -98.1608 70° East 422 486 45,000  Level FlightAware ADS-B
03:07PM 40.4843 -98.0801 70° East 423 487 45,000  Level FlightAware ADS-B
03:08PM 40.5050 -98.0056 70° East 423 487 45,000  Level FlightAware ADS-B
03:08PM 40.5250 -97.9330 70° East 423 487 45,000  Level FlightAware ADS-B
03:09PM 40.5454 -97.8592 70° East 423 487 45,000  Level FlightAware ADS-B
03:09PM 40.5655 -97.7865 70° East 424 488 45,000  Level FlightAware ADS-B
03:10PM 40.5865 -97.7098 70° East 425 489 45,000  Level FlightAware ADS-B
03:10PM 40.6065 -97.6368 70° East 425 489 45,000  Level FlightAware ADS-B
03:11PM 40.6266 -97.5634 70° East 426 490 45,000  Level FlightAware ADS-B
03:11PM 40.6465 -97.4903 70° East 427 491 45,000  Level FlightAware ADS-B
03:12PM 40.6668 -97.4156 70° East 427 491 45,000  Level FlightAware ADS-B
03:12PM 40.6869 -97.3412 70° East 427 491 45,000  Level FlightAware ADS-B
03:13PM 40.7073 -97.2656 70° East 426 490 45,000  Level FlightAware ADS-B
03:13PM 40.7277 -97.1898 70° East 426 490 45,000  Level FlightAware ADS-B
03:14PM 40.7424 -97.1350 70° East 426 490 45,000  Level FlightAware ADS-B
03:14PM 40.7755 -97.0113 71° East 429 494 45,000  Level FlightAware ADS-B
03:15PM 40.7953 -96.9366 71° East 432 497 45,000  Level FlightAware ADS-B
03:15PM 40.8153 -96.8616 71° East 433 498 45,000  Level FlightAware ADS-B
03:16PM 40.8355 -96.7850 71° East 435 501 45,000  Level FlightAware ADS-B
03:16PM 40.8555 -96.7092 71° East 436 502 45,000  Level FlightAware ADS-B
03:17PM 40.8760 -96.6315 71° East 438 504 45,000  Level FlightAware ADS-B
03:18PM 40.8967 -96.5524 71° East 437 503 45,000  Level FlightAware ADS-B
03:18PM 40.9165 -96.4767 71° East 437 503 45,000  Level FlightAware ADS-B
03:19PM 40.9363 -96.4005 71° East 436 502 45,000  Level FlightAware ADS-B
03:19PM 40.9563 -96.3237 71° East 438 504 45,000  Level FlightAware ADS-B
03:20PM 40.9762 -96.2468 71° East 437 503 45,000  Level FlightAware ADS-B
03:20PM 40.9960 -96.1700 71° East 435 501 45,000  Level FlightAware ADS-B
03:21PM 41.0155 -96.0940 71° East 417 480 45,000  Level FlightAware ADS-B
03:21PM 41.0345 -96.0198 71° East 414 476 45,000  Level FlightAware ADS-B
03:22PM 41.0541 -95.9437 71° East 417 480 45,000  Level FlightAware ADS-B
03:22PM 41.0728 -95.8703 71° East 420 483 45,000  Level FlightAware ADS-B
03:25PM 41.1625 -95.5153 71° East 424 488 45,000  Level FlightAware ADS-B
03:25PM 41.1820 -95.4371 72° East 425 489 45,000  Level FlightAware ADS-B
03:26PM 41.2007 -95.3623 72° East 425 489 45,000  Level FlightAware ADS-B
03:26PM 41.2194 -95.2872 72° East 425 489 45,000  Level FlightAware ADS-B
03:27PM 41.2382 -95.2113 72° East 424 488 45,000  Level FlightAware ADS-B
03:27PM 41.2573 -95.1339 72° East 423 487 45,000  Level FlightAware ADS-B
03:28PM 41.2761 -95.0577 72° East 421 484 45,000  Level FlightAware ADS-B
03:28PM 41.2941 -94.9845 72° East 418 481 45,000  Level FlightAware ADS-B
03:29PM 41.3120 -94.9110 72° East 416 479 45,000  Level FlightAware ADS-B
03:29PM 41.3303 -94.8359 72° East 415 478 45,000  Level FlightAware ADS-B
03:30PM 41.3482 -94.7624 72° East 416 479 45,000  Level FlightAware ADS-B
03:30PM 41.3663 -94.6879 72° East 414 476 45,000  Level FlightAware ADS-B
03:31PM 41.3841 -94.6139 72° East 414 476 45,000  Level FlightAware ADS-B
03:31PM 41.4020 -94.5400 72° East 412 474 45,000  Level FlightAware ADS-B
03:32PM 41.4194 -94.4675 72° East 411 473 45,000  Level FlightAware ADS-B
03:32PM 41.4377 -94.3908 72° East 411 473 45,000  Level FlightAware ADS-B
03:33PM 41.4564 -94.3128 72° East 412 474 45,000  Level FlightAware ADS-B
03:33PM 41.4737 -94.2400 72° East 411 473 45,000  Level FlightAware ADS-B
03:34PM 41.4922 -94.1620 72° East 410 472 45,000  Level FlightAware ADS-B
03:35PM 41.5223 -94.0343 72° East 408 470 45,000  Level FlightAware ADS-B
03:35PM 41.5395 -93.9610 73° East 408 470 45,000  Level FlightAware ADS-B
03:36PM 41.5569 -93.8866 73° East 408 470 45,000  Level FlightAware ADS-B
03:36PM 41.5737 -93.8144 73° East 407 468 45,000  Level FlightAware ADS-B
03:37PM 41.5909 -93.7406 73° East 407 468 45,000  Level FlightAware ADS-B
03:37PM 41.6078 -93.6677 73° East 408 470 45,000  Level FlightAware ADS-B
03:38PM 41.6245 -93.5954 73° East 408 470 45,000  Level FlightAware ADS-B
03:38PM 41.6413 -93.5226 73° East 408 470 45,000  Level FlightAware ADS-B
03:39PM 41.6584 -93.4479 73° East 409 471 45,000  Level FlightAware ADS-B
03:39PM 41.6751 -93.3751 73° East 410 472 45,000  Level FlightAware ADS-B
03:40PM 41.6917 -93.3023 73° East 411 473 45,000  Level FlightAware ADS-B
03:40PM 41.7087 -93.2274 73° East 411 473 45,000  Level FlightAware ADS-B
03:41PM 41.7258 -93.1518 73° East 412 474 45,000  Level FlightAware ADS-B
03:41PM 41.7432 -93.0747 73° East 413 475 45,000  Level FlightAware ADS-B
03:42PM 41.7599 -93.0004 73° East 413 475 45,000  Level FlightAware ADS-B
03:42PM 41.7769 -92.9244 73° East 413 475 45,000  Level FlightAware ADS-B
03:43PM 41.7934 -92.8506 73° East 412 474 45,000  Level FlightAware ADS-B
03:43PM 41.8098 -92.7768 73° East 413 475 45,000  Level FlightAware ADS-B
03:44PM 41.8262 -92.7031 73° East 412 474 45,000  Level FlightAware ADS-B
03:44PM 41.8439 -92.6231 73° East 412 474 45,000  Level FlightAware ADS-B
03:45PM 41.8575 -92.5608 73° East 409 471 45,000  Level Chicago Center
03:46PM 41.8897 -92.4144 73° East 411 473 45,000  Level Chicago Center
03:47PM 41.9214 -92.2683 74° East 413 475 45,000  Level Chicago Center
03:48PM 41.9533 -92.1206 74° East 417 480 45,000 -900 Level Chicago Center
03:54PM 42.1550 -91.1620 74° East 429 494 38,700 -1,140 Descending FlightAware
03:55PM 42.1900 -90.9960 74° East 445 512 37,200 -1,560 Descending FlightAware
03:56PM 42.2170 -90.8590 75° East 427 491 35,900 -1,500 Descending FlightAware
03:57PM 42.2380 -90.7590 74° East 426 490 34,900 -1,500 Descending FlightAware
03:57PM 42.2540 -90.6810 74° East 444 511 34,200 -1,500 Descending FlightAware
03:58PM 42.2710 -90.5940 75° East 442 509 33,400 -1,500 Descending FlightAware
03:58PM 42.2930 -90.4820 75° East 439 505 32,300 -1,500 Descending FlightAware
03:59PM 42.3140 -90.3770 75° East 439 505 31,300 -1,620 Descending FlightAware
04:00PM 42.3340 -90.2750 75° East 446 513 30,300 -1,560 Descending FlightAware
04:00PM 42.3570 -90.1570 75° East 439 505 29,200 -1,440 Descending FlightAware
04:01PM 42.3820 -90.0320 75° East 437 503 28,100 -1,080 Descending FlightAware
04:02PM 42.4010 -89.9360 75° East 431 496 27,700 -1,200 Descending FlightAware
04:03PM 42.4230 -89.8170 76° East 413 475 26,500 -1,560 Descending FlightAware
04:03PM 42.4420 -89.7190 75° East 410 472 25,500 -1,500 Descending FlightAware
04:04PM 42.4630 -89.6080 76° East 401 461 24,400 -1,200 Descending FlightAware
04:05PM 42.4800 -89.5200 75° East 377 434 23,900 -1,260 Descending FlightAware
04:05PM 42.5010 -89.4130 75° East 389 448 22,700 -1,620 Descending FlightAware
04:06PM 42.5190 -89.3170 76° East 385 443 21,600 -1,620 Descending FlightAware
04:07PM 42.5370 -89.2180 76° East 385 443 20,500 -1,620 Descending FlightAware
04:08PM 42.5550 -89.1210 76° East 373 429 19,400 -1,620 Descending FlightAware
04:08PM 42.5740 -89.0220 75° East 369 425 18,200 -1,680 Descending FlightAware
04:09PM 42.5880 -88.9430 76° East 360 414 17,200 -1,680 Descending FlightAware
04:10PM 42.6060 -88.8470 76° East 351 404 16,000 -1,620 Descending FlightAware
04:10PM 42.6230 -88.7570 76° East 348 400 14,900 -1,620 Descending FlightAware
04:11PM 42.6350 -88.6910 76° East 347 399 14,100 -1,620 Descending FlightAware
04:11PM 42.6500 -88.6080 76° East 331 381 13,000 -1,620 Descending FlightAware
04:12PM 42.6650 -88.5250 76° East 321 369 11,900 -1,620 Descending FlightAware
04:13PM 42.6770 -88.4590 76° East 311 358 10,900 -1,680 Descending FlightAware
04:13PM 42.6890 -88.3940 76° East 295 339 10,000 -1,620 Descending FlightAware
04:14PM 42.6970 -88.3470 77° East 293 337 9,300 -1,560 Descending FlightAware
04:14PM 42.7060 -88.2970 76° East 293 337 8,600 -1,680 Descending FlightAware
04:15PM 42.7140 -88.2690 69° East 289 333 8,100 -1,740 Descending FlightAware
04:15PM 42.7410 -88.1920 64° Northeast 262 302 6,800 -1,560 Descending FlightAware
04:16PM 42.7580 -88.1460 63° Northeast 240 276 6,000 -1,500 Descending FlightAware
04:16PM 42.7720 -88.1060 64° Northeast 228 262 5,200 -1,620 Descending FlightAware
04:17PM 42.7840 -88.0710 65° Northeast 211 243 4,500 -1,020 Descending FlightAware
04:17PM 42.7950 -88.0380 66° East 198 228 4,300 -240 Descending FlightAware
04:18PM 42.8050 -88.0090 65° Northeast 200 230 4,300 -360 Level FlightAware
04:18PM 42.8160 -87.9760 66° East 174 200 4,000 -840 Descending FlightAware
04:19PM 42.8270 -87.9480 62° Northeast 176 203 3,500 -1,020 Descending FlightAware
04:19PM 42.8380 -87.9260 56° Northeast 167 192 3,100 -1,080 Descending FlightAware
04:20PM 42.8636 -87.9064 56° Northeast 164 189 2,200 -840 Descending Chicago Center
04:21PM 42.9056 -87.9008 North 147 169 1,500 -720 Descending Chicago Center
04:24PM 42.9333 -87.8833 66° East  Level FlightAware Approximate